createdAt,value
2016-10-03T00:00:00.578Z,14
2016-10-03T00:00:10.572Z,14
2016-10-03T00:00:20.567Z,13.9
2016-10-03T00:00:30.562Z,14
2016-10-03T00:00:40.556Z,14
2016-10-03T00:00:50.551Z,14
2016-10-03T00:01:00.546Z,13.9
2016-10-03T00:01:10.540Z,13.9
2016-10-03T00:01:20.535Z,13.9
2016-10-03T00:01:30.529Z,13.8
2016-10-03T00:01:40.524Z,13.9
2016-10-03T00:01:50.519Z,13.9
2016-10-03T00:02:00.514Z,13.9
2016-10-03T00:02:10.509Z,13.9
2016-10-03T00:02:20.504Z,13.9
2016-10-03T00:02:30.497Z,13.8
2016-10-03T00:02:40.498Z,13.8
2016-10-03T00:02:50.487Z,13.8
2016-10-03T00:03:00.482Z,13.9
2016-10-03T00:03:10.476Z,13.8
2016-10-03T00:03:20.469Z,13.8
2016-10-03T00:03:30.466Z,13.8
2016-10-03T00:03:40.461Z,13.8
2016-10-03T00:03:50.455Z,13.8
2016-10-03T00:04:00.450Z,13.9
2016-10-03T00:04:10.444Z,13.8
2016-10-03T00:04:20.439Z,13.8
2016-10-03T00:04:30.434Z,13.9
2016-10-03T00:04:40.427Z,13.8
2016-10-03T00:04:50.423Z,13.8
2016-10-03T00:05:00.418Z,13.9
2016-10-03T00:05:10.411Z,13.8
2016-10-03T00:05:20.408Z,13.8
2016-10-03T00:05:30.401Z,13.8
2016-10-03T00:05:40.396Z,13.8
2016-10-03T00:05:50.390Z,13.8
2016-10-03T00:06:00.385Z,13.9
2016-10-03T00:06:10.381Z,13.9
2016-10-03T00:06:20.376Z,13.9
2016-10-03T00:06:30.370Z,13.8
2016-10-03T00:06:40.365Z,13.8
2016-10-03T00:06:50.357Z,13.8
2016-10-03T00:07:00.354Z,13.9
2016-10-03T00:07:10.349Z,13.7
2016-10-03T00:07:20.343Z,13.8
2016-10-03T00:07:30.337Z,13.8
2016-10-03T00:07:40.333Z,13.8
2016-10-03T00:07:50.327Z,13.8
2016-10-03T00:08:00.322Z,13.8
2016-10-03T00:08:10.316Z,13.8
2016-10-03T00:08:20.311Z,13.8
2016-10-03T00:08:30.307Z,13.8
2016-10-03T00:08:40.302Z,13.8
2016-10-03T00:08:50.297Z,13.8
2016-10-03T00:09:00.291Z,13.8
2016-10-03T00:09:10.284Z,13.8
2016-10-03T00:09:20.280Z,13.8
2016-10-03T00:09:30.273Z,13.8
2016-10-03T00:09:40.269Z,13.7
2016-10-03T00:09:50.264Z,13.7
2016-10-03T00:10:00.258Z,13.8
2016-10-03T00:10:10.253Z,13.8
2016-10-03T00:10:20.249Z,13.8
2016-10-03T00:10:30.242Z,13.8
2016-10-03T00:10:40.237Z,13.8
2016-10-03T00:10:50.231Z,13.8
2016-10-03T00:11:00.226Z,13.8
2016-10-03T00:11:10.221Z,13.8
2016-10-03T00:11:20.215Z,13.8
2016-10-03T00:11:30.210Z,13.8
2016-10-03T00:11:40.206Z,13.8
2016-10-03T00:11:50.205Z,13.7
2016-10-03T00:12:00.195Z,13.7
2016-10-03T00:12:10.189Z,13.7
2016-10-03T00:12:20.184Z,13.8
2016-10-03T00:12:30.181Z,13.7
2016-10-03T00:12:40.173Z,13.7
2016-10-03T00:12:50.168Z,13.7
2016-10-03T00:13:00.163Z,13.8
2016-10-03T00:13:10.157Z,13.7
2016-10-03T00:13:20.152Z,13.7
2016-10-03T00:13:30.145Z,13.8
2016-10-03T00:13:40.141Z,13.7
2016-10-03T00:13:50.136Z,13.7
2016-10-03T00:14:00.129Z,13.7
2016-10-03T00:14:10.126Z,13.7
2016-10-03T00:14:20.121Z,13.6
2016-10-03T00:14:30.115Z,13.7
2016-10-03T00:14:40.110Z,13.8
2016-10-03T00:14:50.104Z,13.7
2016-10-03T00:15:00.097Z,13.6
2016-10-03T00:15:10.094Z,13.6
2016-10-03T00:15:20.088Z,13.6
2016-10-03T00:15:30.081Z,13.6
2016-10-03T00:15:40.078Z,13.6
2016-10-03T00:15:50.071Z,13.6
2016-10-03T00:16:00.066Z,13.6
2016-10-03T00:16:10.061Z,13.6
2016-10-03T00:16:20.056Z,13.7
2016-10-03T00:16:30.052Z,13.6
2016-10-03T00:16:40.045Z,13.6
2016-10-03T00:16:50.040Z,13.6
2016-10-03T00:17:00.036Z,13.6
2016-10-03T00:17:10.029Z,13.7
2016-10-03T00:17:20.023Z,13.6
2016-10-03T00:17:30.018Z,13.6
2016-10-03T00:17:40.014Z,13.6
2016-10-03T00:17:50.007Z,13.6
2016-10-03T00:18:00.002Z,13.8
2016-10-03T00:18:10.000Z,13.6
2016-10-03T00:18:19.993Z,13.6
2016-10-03T00:18:29.987Z,13.7
2016-10-03T00:18:39.982Z,13.6
2016-10-03T00:18:49.976Z,13.6
2016-10-03T00:18:59.973Z,13.6
2016-10-03T00:19:09.966Z,13.6
2016-10-03T00:19:19.965Z,13.7
2016-10-03T00:19:29.955Z,13.6
2016-10-03T00:19:39.950Z,13.6
2016-10-03T00:19:49.944Z,13.6
2016-10-03T00:19:59.938Z,13.6
2016-10-03T00:20:09.931Z,13.7
2016-10-03T00:20:19.928Z,13.7
2016-10-03T00:20:29.923Z,13.6
2016-10-03T00:20:39.918Z,13.7
2016-10-03T00:20:49.913Z,13.6
2016-10-03T00:20:59.907Z,13.7
2016-10-03T00:21:09.902Z,13.6
2016-10-03T00:21:19.897Z,13.7
2016-10-03T00:21:29.891Z,13.6
2016-10-03T00:21:39.901Z,13.6
2016-10-03T00:21:49.880Z,13.6
2016-10-03T00:21:59.873Z,13.6
2016-10-03T00:22:09.871Z,13.6
2016-10-03T00:22:19.865Z,13.6
2016-10-03T00:22:29.859Z,13.6
2016-10-03T00:22:39.853Z,13.6
2016-10-03T00:22:49.848Z,13.6
2016-10-03T00:22:59.842Z,13.6
2016-10-03T00:23:09.839Z,13.6
2016-10-03T00:23:19.832Z,13.6
2016-10-03T00:23:29.828Z,13.5
2016-10-03T00:23:39.821Z,13.6
2016-10-03T00:23:49.816Z,13.6
2016-10-03T00:23:59.810Z,13.6
2016-10-03T00:24:09.805Z,13.6
2016-10-03T00:24:19.800Z,13.6
2016-10-03T00:24:29.795Z,13.6
2016-10-03T00:24:39.789Z,13.6
2016-10-03T00:24:49.784Z,13.6
2016-10-03T00:24:59.778Z,13.6
2016-10-03T00:25:09.774Z,13.6
2016-10-03T00:25:19.768Z,13.6
2016-10-03T00:25:29.762Z,13.6
2016-10-03T00:25:39.757Z,13.6
2016-10-03T00:25:49.752Z,13.6
2016-10-03T00:25:59.747Z,13.6
2016-10-03T00:26:09.743Z,13.6
2016-10-03T00:26:19.735Z,13.6
2016-10-03T00:26:29.730Z,13.6
2016-10-03T00:26:39.727Z,13.6
2016-10-03T00:26:49.724Z,13.7
2016-10-03T00:26:59.716Z,13.6
2016-10-03T00:27:09.710Z,13.6
2016-10-03T00:27:19.704Z,13.6
2016-10-03T00:27:29.700Z,13.6
2016-10-03T00:27:39.693Z,13.5
2016-10-03T00:27:49.689Z,13.5
2016-10-03T00:27:59.682Z,13.6
2016-10-03T00:28:09.679Z,13.5
2016-10-03T00:28:19.672Z,13.5
2016-10-03T00:28:29.667Z,13.6
2016-10-03T00:28:39.662Z,13.6
2016-10-03T00:28:49.661Z,13.6
2016-10-03T00:28:59.651Z,13.5
2016-10-03T00:29:09.645Z,13.5
2016-10-03T00:29:19.640Z,13.5
2016-10-03T00:29:29.634Z,13.6
2016-10-03T00:29:39.629Z,13.6
2016-10-03T00:29:49.625Z,13.5
2016-10-03T00:29:59.619Z,13.5
2016-10-03T00:30:09.612Z,13.5
2016-10-03T00:30:19.609Z,13.5
2016-10-03T00:30:29.602Z,13.5
2016-10-03T00:30:39.598Z,13.5
2016-10-03T00:30:49.592Z,13.5
2016-10-03T00:30:59.588Z,13.5
2016-10-03T00:31:09.583Z,13.5
2016-10-03T00:31:19.575Z,13.5
2016-10-03T00:31:29.571Z,13.6
2016-10-03T00:31:39.566Z,13.4
2016-10-03T00:31:49.560Z,13.5
2016-10-03T00:31:59.555Z,13.5
2016-10-03T00:32:09.550Z,13.5
2016-10-03T00:32:19.544Z,13.5
2016-10-03T00:32:29.538Z,13.5
2016-10-03T00:32:39.539Z,13.5
2016-10-03T00:32:49.529Z,13.4
2016-10-03T00:32:59.524Z,13.5
2016-10-03T00:33:09.519Z,13.5
2016-10-03T00:33:19.512Z,13.5
2016-10-03T00:33:29.506Z,13.6
2016-10-03T00:33:39.502Z,13.5
2016-10-03T00:33:49.497Z,13.5
2016-10-03T00:33:59.491Z,13.5
2016-10-03T00:34:09.485Z,13.5
2016-10-03T00:34:19.480Z,13.5
2016-10-03T00:34:29.473Z,13.5
2016-10-03T00:34:39.469Z,13.4
2016-10-03T00:34:49.464Z,13.4
2016-10-03T00:34:59.459Z,13.5
2016-10-03T00:35:09.453Z,13.5
2016-10-03T00:35:19.448Z,13.4
2016-10-03T00:35:29.443Z,13.4
2016-10-03T00:35:39.438Z,13.4
2016-10-03T00:35:49.431Z,13.4
2016-10-03T00:35:59.427Z,13.4
2016-10-03T00:36:09.420Z,13.4
2016-10-03T00:36:19.415Z,13.4
2016-10-03T00:36:29.410Z,13.4
2016-10-03T00:36:39.403Z,13.4
2016-10-03T00:36:49.400Z,13.5
2016-10-03T00:36:59.396Z,13.5
2016-10-03T00:37:09.388Z,13.5
2016-10-03T00:37:19.385Z,13.5
2016-10-03T00:37:29.379Z,13.5
2016-10-03T00:37:39.374Z,13.4
2016-10-03T00:37:49.369Z,13.4
2016-10-03T00:37:59.362Z,13.4
2016-10-03T00:38:09.358Z,13.4
2016-10-03T00:38:19.351Z,13.5
2016-10-03T00:38:29.347Z,13.4
2016-10-03T00:38:39.341Z,13.4
2016-10-03T00:38:49.335Z,13.4
2016-10-03T00:38:59.330Z,13.4
2016-10-03T00:39:09.325Z,13.4
2016-10-03T00:39:19.320Z,13.4
2016-10-03T00:39:29.315Z,13.4
2016-10-03T00:39:39.310Z,13.4
2016-10-03T00:39:49.305Z,13.4
2016-10-03T00:39:59.298Z,13.4
2016-10-03T00:40:09.293Z,13.4
2016-10-03T00:40:19.289Z,13.4
2016-10-03T00:40:29.284Z,13.4
2016-10-03T00:40:39.277Z,13.4
2016-10-03T00:40:49.272Z,13.4
2016-10-03T00:40:59.266Z,13.4
2016-10-03T00:41:09.261Z,13.4
2016-10-03T00:41:19.256Z,13.4
2016-10-03T00:41:29.250Z,13.4
2016-10-03T00:41:39.247Z,13.4
2016-10-03T00:41:49.241Z,13.4
2016-10-03T00:41:59.236Z,13.3
2016-10-03T00:42:09.231Z,13.3
2016-10-03T00:42:19.224Z,13.4
2016-10-03T00:42:29.218Z,13.3
2016-10-03T00:42:39.213Z,13.4
2016-10-03T00:42:49.207Z,13.4
2016-10-03T00:42:59.203Z,13.4
2016-10-03T00:43:09.199Z,13.4
2016-10-03T00:43:19.193Z,13.3
2016-10-03T00:43:29.186Z,13.3
2016-10-03T00:43:39.182Z,13.3
2016-10-03T00:43:49.177Z,13.3
2016-10-03T00:43:59.172Z,13.3
2016-10-03T00:44:09.166Z,13.3
2016-10-03T00:44:19.159Z,13.3
2016-10-03T00:44:29.155Z,13.4
2016-10-03T00:44:39.150Z,13.3
2016-10-03T00:44:49.144Z,13.3
2016-10-03T00:44:59.140Z,13.3
2016-10-03T00:45:09.133Z,13.3
2016-10-03T00:45:19.129Z,13.3
2016-10-03T00:45:29.123Z,13.3
2016-10-03T00:45:39.118Z,13.3
2016-10-03T00:45:49.112Z,13.3
2016-10-03T00:45:59.108Z,13.3
2016-10-03T00:46:09.103Z,13.4
2016-10-03T00:46:19.096Z,13.3
2016-10-03T00:46:29.091Z,13.3
2016-10-03T00:46:39.086Z,13.3
2016-10-03T00:46:49.080Z,13.3
2016-10-03T00:46:59.074Z,13.3
2016-10-03T00:47:09.069Z,13.3
2016-10-03T00:47:19.064Z,13.3
2016-10-03T00:47:29.059Z,13.3
2016-10-03T00:47:39.054Z,13.3
2016-10-03T00:47:49.048Z,13.3
2016-10-03T00:47:59.043Z,13.3
2016-10-03T00:48:09.037Z,13.3
2016-10-03T00:48:19.031Z,13.3
2016-10-03T00:48:29.027Z,13.3
2016-10-03T00:48:39.021Z,13.2
2016-10-03T00:48:49.015Z,13.2
2016-10-03T00:48:59.011Z,13.2
2016-10-03T00:49:09.006Z,13.2
2016-10-03T00:49:19.000Z,13.2
2016-10-03T00:49:28.995Z,13.2
2016-10-03T00:49:38.989Z,13.3
2016-10-03T00:49:48.984Z,13.2
2016-10-03T00:49:58.979Z,13.1
2016-10-03T00:50:08.973Z,13.2
2016-10-03T00:50:18.968Z,13.2
2016-10-03T00:50:28.962Z,13.2
2016-10-03T00:50:38.957Z,13.2
2016-10-03T00:50:48.951Z,13.2
2016-10-03T00:50:58.945Z,13.2
2016-10-03T00:51:08.941Z,13.2
2016-10-03T00:51:18.935Z,13.2
2016-10-03T00:51:28.931Z,13.2
2016-10-03T00:51:38.926Z,13.2
2016-10-03T00:51:48.920Z,13.2
2016-10-03T00:51:58.915Z,13.2
2016-10-03T00:52:08.909Z,13.2
2016-10-03T00:52:18.903Z,13.2
2016-10-03T00:52:28.900Z,13.2
2016-10-03T00:52:38.892Z,13.2
2016-10-03T00:52:48.886Z,13.2
2016-10-03T00:52:58.882Z,13.2
2016-10-03T00:53:08.877Z,13.2
2016-10-03T00:53:18.872Z,13.2
2016-10-03T00:53:28.865Z,13.1
2016-10-03T00:53:38.859Z,13.2
2016-10-03T00:53:48.857Z,13.2
2016-10-03T00:53:58.850Z,13.1
2016-10-03T00:54:08.844Z,13.1
2016-10-03T00:54:18.839Z,13.1
2016-10-03T00:54:28.833Z,13.1
2016-10-03T00:54:38.827Z,13.1
2016-10-03T00:54:48.822Z,13.1
2016-10-03T00:54:58.818Z,13.1
2016-10-03T00:55:08.814Z,13.1
2016-10-03T00:55:18.805Z,13.1
2016-10-03T00:55:28.800Z,13.2
2016-10-03T00:55:38.798Z,13.1
2016-10-03T00:55:48.791Z,13.1
2016-10-03T00:55:58.787Z,13.2
2016-10-03T00:56:08.780Z,13.1
2016-10-03T00:56:18.775Z,13.2
2016-10-03T00:56:28.770Z,13.1
2016-10-03T00:56:38.764Z,13.1
2016-10-03T00:56:48.759Z,13.1
2016-10-03T00:56:58.753Z,13.1
2016-10-03T00:57:08.748Z,13.1
2016-10-03T00:57:18.743Z,13.1
2016-10-03T00:57:28.737Z,13.1
2016-10-03T00:57:38.732Z,13.1
2016-10-03T00:57:48.727Z,13.1
2016-10-03T00:57:58.721Z,13.2
2016-10-03T00:58:08.716Z,13.1
2016-10-03T00:58:18.710Z,13.2
2016-10-03T00:58:28.706Z,13.1
2016-10-03T00:58:38.700Z,13.1
2016-10-03T00:58:48.694Z,13.1
2016-10-03T00:58:58.689Z,13.2
2016-10-03T00:59:08.683Z,13.1
2016-10-03T00:59:18.679Z,13.1
2016-10-03T00:59:28.672Z,13.1
2016-10-03T00:59:38.667Z,13.1
2016-10-03T00:59:48.662Z,13.1
2016-10-03T00:59:58.657Z,13.2
2016-10-03T01:00:08.651Z,13.1
2016-10-03T01:00:18.646Z,13.1
2016-10-03T01:00:28.642Z,13.1
2016-10-03T01:00:38.635Z,13
2016-10-03T01:00:48.630Z,13.1
2016-10-03T01:00:58.624Z,13.1
2016-10-03T01:01:08.619Z,13.1
2016-10-03T01:01:18.613Z,13.1
2016-10-03T01:01:28.608Z,13.1
2016-10-03T01:01:38.603Z,13.1
2016-10-03T01:01:48.599Z,13.1
2016-10-03T01:01:58.592Z,13.2
2016-10-03T01:02:08.588Z,13.1
2016-10-03T01:02:18.582Z,13.1
2016-10-03T01:02:28.576Z,13.1
2016-10-03T01:02:38.570Z,13.2
2016-10-03T01:02:48.565Z,13.2
2016-10-03T01:02:58.559Z,13.1
2016-10-03T01:03:08.554Z,13.1
2016-10-03T01:03:18.550Z,13.1
2016-10-03T01:03:28.545Z,13
2016-10-03T01:03:38.539Z,13
2016-10-03T01:03:48.534Z,13.1
2016-10-03T01:03:58.527Z,13
2016-10-03T01:04:08.522Z,13.1
2016-10-03T01:04:18.517Z,13
2016-10-03T01:04:28.512Z,13
2016-10-03T01:04:38.507Z,13
2016-10-03T01:04:48.501Z,12.9
2016-10-03T01:04:58.495Z,12.9
2016-10-03T01:05:08.490Z,13
2016-10-03T01:05:18.484Z,13
2016-10-03T01:05:28.480Z,13.1
2016-10-03T01:05:38.475Z,13.1
2016-10-03T01:05:48.469Z,13.1
2016-10-03T01:05:58.463Z,13
2016-10-03T01:06:08.464Z,12.9
2016-10-03T01:06:18.453Z,12.9
2016-10-03T01:06:28.446Z,12.9
2016-10-03T01:06:38.441Z,13
2016-10-03T01:06:48.435Z,12.9
2016-10-03T01:06:58.430Z,13
2016-10-03T01:07:08.427Z,12.9
2016-10-03T01:07:18.420Z,13
2016-10-03T01:07:28.416Z,12.9
2016-10-03T01:07:38.410Z,13
2016-10-03T01:07:48.404Z,12.9
2016-10-03T01:07:58.399Z,12.9
2016-10-03T01:08:08.393Z,12.8
2016-10-03T01:08:18.389Z,12.8
2016-10-03T01:08:28.384Z,12.9
2016-10-03T01:08:38.378Z,12.9
2016-10-03T01:08:48.372Z,12.9
2016-10-03T01:08:58.366Z,12.9
2016-10-03T01:09:08.360Z,12.9
2016-10-03T01:09:18.357Z,12.9
2016-10-03T01:09:28.349Z,12.9
2016-10-03T01:09:38.345Z,12.9
2016-10-03T01:09:48.341Z,12.9
2016-10-03T01:09:58.334Z,12.9
2016-10-03T01:10:08.329Z,12.9
2016-10-03T01:10:18.324Z,13
2016-10-03T01:10:28.318Z,12.8
2016-10-03T01:10:38.314Z,12.9
2016-10-03T01:10:48.306Z,12.9
2016-10-03T01:10:58.302Z,12.9
2016-10-03T01:11:08.297Z,12.9
2016-10-03T01:11:18.289Z,12.9
2016-10-03T01:11:28.286Z,12.9
2016-10-03T01:11:38.281Z,12.8
2016-10-03T01:11:48.276Z,12.8
2016-10-03T01:11:58.271Z,12.8
2016-10-03T01:12:08.264Z,12.8
2016-10-03T01:12:18.261Z,12.8
2016-10-03T01:12:28.255Z,12.8
2016-10-03T01:12:38.249Z,12.8
2016-10-03T01:12:48.244Z,12.8
2016-10-03T01:12:58.238Z,12.8
2016-10-03T01:13:08.232Z,12.7
2016-10-03T01:13:18.227Z,12.8
2016-10-03T01:13:28.236Z,12.8
2016-10-03T01:13:38.216Z,12.8
2016-10-03T01:13:48.211Z,12.8
2016-10-03T01:13:58.205Z,12.8
2016-10-03T01:14:08.199Z,12.9
2016-10-03T01:14:18.195Z,12.8
2016-10-03T01:14:28.189Z,12.8
2016-10-03T01:14:38.185Z,12.8
2016-10-03T01:14:48.177Z,12.9
2016-10-03T01:14:58.172Z,12.8
2016-10-03T01:15:08.167Z,12.9
2016-10-03T01:15:18.163Z,12.8
2016-10-03T01:15:28.157Z,12.9
2016-10-03T01:15:38.153Z,12.8
2016-10-03T01:15:48.146Z,12.8
2016-10-03T01:15:58.140Z,12.8
2016-10-03T01:16:08.135Z,12.8
2016-10-03T01:16:18.130Z,12.8
2016-10-03T01:16:28.126Z,12.8
2016-10-03T01:16:38.118Z,12.7
2016-10-03T01:16:48.113Z,12.7
2016-10-03T01:16:58.107Z,12.7
2016-10-03T01:17:08.102Z,12.7
2016-10-03T01:17:18.098Z,12.7
2016-10-03T01:17:28.093Z,12.7
2016-10-03T01:17:38.087Z,12.7
2016-10-03T01:17:48.082Z,12.7
2016-10-03T01:17:58.080Z,12.7
2016-10-03T01:18:08.071Z,12.7
2016-10-03T01:18:18.066Z,12.7
2016-10-03T01:18:28.060Z,12.7
2016-10-03T01:18:38.054Z,12.7
2016-10-03T01:18:48.049Z,12.7
2016-10-03T01:18:58.044Z,12.7
2016-10-03T01:19:08.038Z,12.7
2016-10-03T01:19:18.032Z,12.6
2016-10-03T01:19:28.028Z,12.7
2016-10-03T01:19:38.022Z,12.7
2016-10-03T01:19:48.018Z,12.7
2016-10-03T01:19:58.012Z,12.7
2016-10-03T01:20:08.006Z,12.7
2016-10-03T01:20:18.001Z,12.7
2016-10-03T01:20:27.996Z,12.7
2016-10-03T01:20:37.989Z,12.8
2016-10-03T01:20:47.985Z,12.7
2016-10-03T01:20:57.978Z,12.7
2016-10-03T01:21:07.974Z,12.6
2016-10-03T01:21:17.969Z,12.6
2016-10-03T01:21:27.962Z,12.6
2016-10-03T01:21:37.957Z,12.6
2016-10-03T01:21:47.953Z,12.6
2016-10-03T01:21:57.947Z,12.6
2016-10-03T01:22:07.942Z,12.6
2016-10-03T01:22:17.937Z,12.6
2016-10-03T01:22:27.931Z,12.6
2016-10-03T01:22:37.931Z,12.6
2016-10-03T01:22:47.918Z,12.5
2016-10-03T01:22:57.914Z,12.6
2016-10-03T01:23:07.908Z,12.5
2016-10-03T01:23:17.903Z,12.5
2016-10-03T01:23:27.898Z,12.5
2016-10-03T01:23:37.898Z,12.5
2016-10-03T01:23:47.888Z,12.6
2016-10-03T01:23:57.882Z,12.5
2016-10-03T01:24:07.878Z,12.6
2016-10-03T01:24:17.872Z,12.5
2016-10-03T01:24:27.867Z,12.5
2016-10-03T01:24:37.861Z,12.5
2016-10-03T01:24:47.856Z,12.5
2016-10-03T01:24:57.851Z,12.5
2016-10-03T01:25:07.843Z,12.5
2016-10-03T01:25:17.839Z,12.5
2016-10-03T01:25:27.833Z,12.5
2016-10-03T01:25:37.829Z,12.5
2016-10-03T01:25:47.824Z,12.5
2016-10-03T01:25:57.817Z,12.5
2016-10-03T01:26:07.813Z,12.5
2016-10-03T01:26:17.808Z,12.4
2016-10-03T01:26:27.802Z,12.5
2016-10-03T01:26:37.798Z,12.5
2016-10-03T01:26:47.791Z,12.5
2016-10-03T01:26:57.785Z,12.5
2016-10-03T01:27:07.779Z,12.4
2016-10-03T01:27:17.774Z,12.4
2016-10-03T01:27:27.769Z,12.5
2016-10-03T01:27:37.763Z,12.5
2016-10-03T01:27:47.758Z,12.4
2016-10-03T01:27:57.753Z,12.3
2016-10-03T01:28:07.747Z,12.4
2016-10-03T01:28:17.742Z,12.4
2016-10-03T01:28:27.738Z,12.4
2016-10-03T01:28:37.732Z,12.4
2016-10-03T01:28:47.725Z,12.4
2016-10-03T01:28:57.720Z,12.4
2016-10-03T01:29:07.715Z,12.4
2016-10-03T01:29:17.710Z,12.4
2016-10-03T01:29:27.703Z,12.4
2016-10-03T01:29:37.705Z,12.4
2016-10-03T01:29:47.694Z,12.4
2016-10-03T01:29:57.688Z,12.4
2016-10-03T01:30:07.684Z,12.4
2016-10-03T01:30:17.678Z,12.4
2016-10-03T01:30:27.672Z,12.4
2016-10-03T01:30:37.667Z,12.3
2016-10-03T01:30:47.660Z,12.4
2016-10-03T01:30:57.656Z,12.4
2016-10-03T01:31:07.649Z,12.4
2016-10-03T01:31:17.644Z,12.4
2016-10-03T01:31:27.639Z,12.4
2016-10-03T01:31:37.635Z,12.4
2016-10-03T01:31:47.628Z,12.4
2016-10-03T01:31:57.623Z,12.4
2016-10-03T01:32:07.617Z,12.3
2016-10-03T01:32:17.613Z,12.4
2016-10-03T01:32:27.609Z,12.4
2016-10-03T01:32:37.602Z,12.3
2016-10-03T01:32:47.597Z,12.4
2016-10-03T01:32:57.593Z,12.4
2016-10-03T01:33:07.586Z,12.5
2016-10-03T01:33:17.580Z,12.5
2016-10-03T01:33:27.575Z,12.4
2016-10-03T01:33:37.570Z,12.4
2016-10-03T01:33:47.565Z,12.4
2016-10-03T01:33:57.564Z,12.3
2016-10-03T01:34:07.553Z,12.4
2016-10-03T01:34:17.549Z,12.4
2016-10-03T01:34:27.543Z,12.4
2016-10-03T01:34:37.538Z,12.4
2016-10-03T01:34:47.532Z,12.4
2016-10-03T01:34:57.526Z,12.4
2016-10-03T01:35:07.520Z,12.4
2016-10-03T01:35:17.516Z,12.4
2016-10-03T01:35:27.510Z,12.4
2016-10-03T01:35:37.505Z,12.4
2016-10-03T01:35:47.500Z,12.4
2016-10-03T01:35:57.494Z,12.4
2016-10-03T01:36:07.489Z,12.4
2016-10-03T01:36:17.484Z,12.4
2016-10-03T01:36:27.597Z,12.4
2016-10-03T01:36:37.471Z,12.4
2016-10-03T01:36:47.467Z,12.4
2016-10-03T01:36:57.461Z,12.4
2016-10-03T01:37:07.456Z,12.3
2016-10-03T01:37:17.450Z,12.4
2016-10-03T01:37:27.444Z,12.4
2016-10-03T01:37:37.441Z,12.4
2016-10-03T01:37:47.436Z,12.4
2016-10-03T01:37:57.429Z,12.5
2016-10-03T01:38:07.425Z,12.4
2016-10-03T01:38:17.419Z,12.4
2016-10-03T01:38:27.414Z,12.3
2016-10-03T01:38:37.409Z,12.4
2016-10-03T01:38:47.403Z,12.3
2016-10-03T01:38:57.396Z,12.5
2016-10-03T01:39:07.392Z,12.4
2016-10-03T01:39:17.386Z,12.4
2016-10-03T01:39:27.381Z,12.4
2016-10-03T01:39:37.377Z,12.4
2016-10-03T01:39:47.370Z,12.4
2016-10-03T01:39:57.365Z,12.4
2016-10-03T01:40:07.359Z,12.4
2016-10-03T01:40:17.354Z,12.3
2016-10-03T01:40:27.349Z,12.3
2016-10-03T01:40:37.342Z,12.4
2016-10-03T01:40:47.338Z,12.4
2016-10-03T01:40:57.332Z,12.5
2016-10-03T01:41:07.326Z,12.3
2016-10-03T01:41:17.321Z,12.4
2016-10-03T01:41:27.316Z,12.3
2016-10-03T01:41:37.310Z,12.3
2016-10-03T01:41:47.306Z,12.4
2016-10-03T01:41:57.299Z,12.4
2016-10-03T01:42:07.295Z,12.3
2016-10-03T01:42:17.291Z,12.3
2016-10-03T01:42:27.284Z,12.4
2016-10-03T01:42:37.278Z,12.3
2016-10-03T01:42:47.273Z,12.4
2016-10-03T01:42:57.266Z,12.3
2016-10-03T01:43:07.263Z,12.4
2016-10-03T01:43:17.255Z,12.3
2016-10-03T01:43:27.251Z,12.4
2016-10-03T01:43:37.247Z,12.3
2016-10-03T01:43:47.242Z,12.3
2016-10-03T01:43:57.236Z,12.3
2016-10-03T01:44:07.230Z,12.3
2016-10-03T01:44:17.225Z,12.3
2016-10-03T01:44:27.219Z,12.3
2016-10-03T01:44:37.213Z,12.3
2016-10-03T01:44:47.210Z,12.4
2016-10-03T01:44:57.203Z,12.3
2016-10-03T01:45:07.200Z,12.3
2016-10-03T01:45:17.192Z,12.3
2016-10-03T01:45:27.187Z,12.3
2016-10-03T01:45:37.182Z,12.4
2016-10-03T01:45:47.175Z,12.3
2016-10-03T01:45:57.171Z,12.3
2016-10-03T01:46:07.165Z,12.3
2016-10-03T01:46:17.160Z,12.3
2016-10-03T01:46:27.154Z,12.3
2016-10-03T01:46:37.149Z,12.3
2016-10-03T01:46:47.143Z,12.2
2016-10-03T01:46:57.137Z,12.3
2016-10-03T01:47:07.132Z,12.3
2016-10-03T01:47:17.127Z,12.3
2016-10-03T01:47:27.123Z,12.3
2016-10-03T01:47:37.118Z,12.3
2016-10-03T01:47:47.111Z,12.3
2016-10-03T01:47:57.106Z,12.3
2016-10-03T01:48:07.101Z,12.3
2016-10-03T01:48:17.095Z,12.3
2016-10-03T01:48:27.091Z,12.4
2016-10-03T01:48:37.084Z,12.3
2016-10-03T01:48:47.078Z,12.3
2016-10-03T01:48:57.072Z,12.3
2016-10-03T01:49:07.067Z,12.2
2016-10-03T01:49:17.062Z,12.3
2016-10-03T01:49:27.057Z,12.2
2016-10-03T01:49:37.051Z,12.3
2016-10-03T01:49:47.047Z,12.3
2016-10-03T01:49:57.041Z,12.4
2016-10-03T01:50:07.036Z,12.2
2016-10-03T01:50:17.032Z,12.4
2016-10-03T01:50:27.025Z,12.3
2016-10-03T01:50:37.019Z,12.3
2016-10-03T01:50:47.014Z,12.4
2016-10-03T01:50:57.008Z,12.2
2016-10-03T01:51:07.002Z,12.2
2016-10-03T01:51:16.996Z,12.2
2016-10-03T01:51:26.991Z,12.3
2016-10-03T01:51:36.986Z,12.2
2016-10-03T01:51:46.982Z,12.2
2016-10-03T01:51:56.977Z,12.3
2016-10-03T01:52:06.970Z,12.2
2016-10-03T01:52:16.966Z,12.2
2016-10-03T01:52:26.961Z,12.2
2016-10-03T01:52:36.955Z,12.3
2016-10-03T01:52:46.948Z,12.3
2016-10-03T01:52:56.943Z,12.3
2016-10-03T01:53:06.937Z,12.2
2016-10-03T01:53:16.932Z,12.2
2016-10-03T01:53:26.928Z,12.3
2016-10-03T01:53:36.922Z,12.3
2016-10-03T01:53:46.916Z,12.3
2016-10-03T01:53:56.911Z,12.2
2016-10-03T01:54:06.907Z,12.3
2016-10-03T01:54:16.907Z,12.2
2016-10-03T01:54:26.896Z,12.3
2016-10-03T01:54:36.888Z,12.2
2016-10-03T01:54:46.884Z,12.2
2016-10-03T01:54:56.877Z,12.2
2016-10-03T01:55:06.873Z,12.2
2016-10-03T01:55:16.867Z,12.2
2016-10-03T01:55:26.863Z,12.1
2016-10-03T01:55:36.858Z,12.2
2016-10-03T01:55:46.853Z,12.1
2016-10-03T01:55:56.848Z,12.2
2016-10-03T01:56:06.842Z,12.2
2016-10-03T01:56:16.842Z,12.2
2016-10-03T01:56:26.831Z,12.3
2016-10-03T01:56:36.825Z,12.2
2016-10-03T01:56:46.821Z,12.2
2016-10-03T01:56:56.814Z,12.2
2016-10-03T01:57:06.811Z,12.2
2016-10-03T01:57:16.804Z,12.1
2016-10-03T01:57:26.799Z,12.3
2016-10-03T01:57:36.792Z,12.2
2016-10-03T01:57:46.788Z,12.1
2016-10-03T01:57:56.783Z,12.1
2016-10-03T01:58:06.778Z,12.2
2016-10-03T01:58:16.773Z,12.2
2016-10-03T01:58:26.766Z,12.2
2016-10-03T01:58:36.760Z,12.1
2016-10-03T01:58:46.755Z,12.1
2016-10-03T01:58:56.750Z,12.2
2016-10-03T01:59:06.744Z,12.2
2016-10-03T01:59:16.739Z,12.1
2016-10-03T01:59:26.734Z,12.1
2016-10-03T01:59:36.728Z,12.1
2016-10-03T01:59:46.724Z,12.1
2016-10-03T01:59:56.719Z,12.1
2016-10-03T02:00:06.713Z,12.1
2016-10-03T02:00:16.708Z,12.2
2016-10-03T02:00:26.703Z,12.2
2016-10-03T02:00:36.697Z,12.1
2016-10-03T02:00:46.691Z,12.1
2016-10-03T02:00:56.684Z,12.1
2016-10-03T02:01:06.678Z,12.1
2016-10-03T02:01:16.673Z,12.1
2016-10-03T02:01:26.670Z,12.2
2016-10-03T02:01:36.664Z,12.2
2016-10-03T02:01:46.676Z,12.2
2016-10-03T02:01:56.654Z,12.1
2016-10-03T02:02:06.659Z,12.2
2016-10-03T02:02:16.644Z,12.2
2016-10-03T02:02:26.637Z,12
2016-10-03T02:02:36.631Z,12.1
2016-10-03T02:02:46.626Z,12.1
2016-10-03T02:02:56.621Z,12.1
2016-10-03T02:03:06.616Z,12.1
2016-10-03T02:03:16.608Z,12.1
2016-10-03T02:03:26.603Z,12.1
2016-10-03T02:03:36.599Z,12.1
2016-10-03T02:03:46.592Z,12.1
2016-10-03T02:03:56.589Z,12
2016-10-03T02:04:06.583Z,12.2
2016-10-03T02:04:16.578Z,12.1
2016-10-03T02:04:26.572Z,12.1
2016-10-03T02:04:36.566Z,12.1
2016-10-03T02:04:46.560Z,12
2016-10-03T02:04:56.568Z,12.1
2016-10-03T02:05:06.549Z,12.1
2016-10-03T02:05:16.546Z,12.1
2016-10-03T02:05:26.538Z,12.1
2016-10-03T02:05:36.534Z,12.1
2016-10-03T02:05:46.529Z,12.1
2016-10-03T02:05:56.522Z,12.1
2016-10-03T02:06:06.518Z,12.1
2016-10-03T02:06:16.513Z,12.1
2016-10-03T02:06:26.506Z,12.1
2016-10-03T02:06:36.501Z,12.1
2016-10-03T02:06:46.496Z,12.1
2016-10-03T02:06:56.490Z,12.1
2016-10-03T02:07:06.485Z,12.1
2016-10-03T02:07:16.479Z,12.1
2016-10-03T02:07:26.475Z,12
2016-10-03T02:07:36.470Z,12
2016-10-03T02:07:46.464Z,12.1
2016-10-03T02:07:56.458Z,12.1
2016-10-03T02:08:06.453Z,12.1
2016-10-03T02:08:16.447Z,12.1
2016-10-03T02:08:26.442Z,12.1
2016-10-03T02:08:36.435Z,12.1
2016-10-03T02:08:46.430Z,12.1
2016-10-03T02:08:56.426Z,12.1
2016-10-03T02:09:06.421Z,12.1
2016-10-03T02:09:16.414Z,12.1
2016-10-03T02:09:26.410Z,12.1
2016-10-03T02:09:36.405Z,12.1
2016-10-03T02:09:46.400Z,12
2016-10-03T02:09:56.391Z,12
2016-10-03T02:10:06.389Z,12
2016-10-03T02:10:16.383Z,12.1
2016-10-03T02:10:26.376Z,12.1
2016-10-03T02:10:36.372Z,12.1
2016-10-03T02:10:46.364Z,12.1
2016-10-03T02:10:56.359Z,12.1
2016-10-03T02:11:06.354Z,12.1
2016-10-03T02:11:16.349Z,12.1
2016-10-03T02:11:26.344Z,12
2016-10-03T02:11:36.339Z,12.1
2016-10-03T02:11:46.334Z,12
2016-10-03T02:11:56.328Z,12
2016-10-03T02:12:06.323Z,12
2016-10-03T02:12:16.317Z,12
2016-10-03T02:12:26.318Z,12
2016-10-03T02:12:36.305Z,12
2016-10-03T02:12:46.300Z,12.1
2016-10-03T02:12:56.296Z,12
2016-10-03T02:13:06.289Z,12.1
2016-10-03T02:13:16.286Z,11.9